createdAt,value
2022-09-10T00:01:59.845Z,17.00
2022-09-10T00:04:28.115Z,17.00
2022-09-10T00:06:55.717Z,17.00
2022-09-10T00:09:23.199Z,17.00
2022-09-10T00:11:50.655Z,17.00
2022-09-10T00:14:23.113Z,17.00
2022-09-10T00:16:50.580Z,16.90
2022-09-10T00:19:18.314Z,16.90
2022-09-10T00:21:45.727Z,16.90
2022-09-10T00:24:13.736Z,16.90
2022-09-10T00:26:40.861Z,16.90
2022-09-10T00:29:11.719Z,16.90
2022-09-10T00:31:39.234Z,16.90
2022-09-10T00:34:07.034Z,16.90
2022-09-10T00:36:37.444Z,16.90
2022-09-10T00:39:08.333Z,16.80
2022-09-10T00:41:37.811Z,16.80
2022-09-10T00:44:07.508Z,16.80
2022-09-10T00:46:39.577Z,16.70
2022-09-10T00:49:20.374Z,16.70
2022-09-10T00:51:50.428Z,16.70
2022-09-10T00:54:20.321Z,16.70
2022-09-10T00:56:49.781Z,16.60
2022-09-10T00:59:20.487Z,16.60
2022-09-10T01:01:49.261Z,16.60
2022-09-10T01:04:16.747Z,16.60
2022-09-10T01:06:46.265Z,16.60
2022-09-10T01:09:14.773Z,16.60
2022-09-10T01:12:09.977Z,16.60
2022-09-10T01:14:56.847Z,16.60
2022-09-10T01:17:28.524Z,16.60
2022-09-10T01:20:15.744Z,16.50
2022-09-10T01:23:04.107Z,16.50
2022-09-10T01:25:46.757Z,16.50
2022-09-10T01:28:23.251Z,16.50
2022-09-10T01:30:56.875Z,16.50
2022-09-10T01:33:29.080Z,16.50
2022-09-10T01:36:02.335Z,16.40
2022-09-10T01:38:35.569Z,16.40
2022-09-10T01:41:04.420Z,16.40
2022-09-10T01:43:37.674Z,16.40
2022-09-10T01:46:28.326Z,16.30
2022-09-10T01:49:04.393Z,16.30
2022-09-10T01:52:12.214Z,16.30
2022-09-10T01:55:00.418Z,16.20
2022-09-10T01:57:39.305Z,16.30
2022-09-10T02:00:10.790Z,16.20
2022-09-10T02:02:50.278Z,16.10
2022-09-10T02:05:20.712Z,16.10
2022-09-10T02:08:00.052Z,16.00
2022-09-10T02:10:27.657Z,16.00
2022-09-10T02:12:55.516Z,16.00
2022-09-10T02:15:41.412Z,15.90
2022-09-10T02:18:17.458Z,15.90
2022-09-10T02:20:47.128Z,15.80
2022-09-10T02:23:18.382Z,15.80
2022-09-10T02:25:46.037Z,15.80
2022-09-10T02:28:13.823Z,15.70
2022-09-10T02:30:40.984Z,15.70
2022-09-10T02:33:08.323Z,15.70
2022-09-10T02:35:35.422Z,15.80
2022-09-10T02:38:02.536Z,15.70
2022-09-10T02:40:31.883Z,15.80
2022-09-10T02:42:59.212Z,15.80
2022-09-10T02:45:26.777Z,15.80
2022-09-10T02:47:54.930Z,15.80
2022-09-10T02:50:24.421Z,15.80
2022-09-10T02:52:51.866Z,15.80
2022-09-10T02:55:19.089Z,15.80
2022-09-10T02:57:47.237Z,15.90
2022-09-10T03:00:14.603Z,15.90
2022-09-10T03:02:41.625Z,15.90
2022-09-10T03:05:09.177Z,15.90
2022-09-10T03:07:36.584Z,15.90
2022-09-10T03:10:04.230Z,15.80
2022-09-10T03:12:31.493Z,15.80
2022-09-10T03:14:59.728Z,15.80
2022-09-10T03:17:27.043Z,15.80
2022-09-10T03:19:54.824Z,15.80
2022-09-10T03:22:22.121Z,15.80
2022-09-10T03:24:49.601Z,15.70
2022-09-10T03:27:18.221Z,15.70
2022-09-10T03:29:45.464Z,15.60
2022-09-10T03:32:14.154Z,15.60
2022-09-10T03:34:41.328Z,15.50
2022-09-10T03:37:08.362Z,15.50
2022-09-10T03:39:36.434Z,15.40
2022-09-10T03:42:05.311Z,15.30
2022-09-10T03:44:33.728Z,15.30
2022-09-10T03:47:01.776Z,15.20
2022-09-10T03:49:29.279Z,15.10
2022-09-10T03:51:56.497Z,15.00
2022-09-10T03:54:24.625Z,15.00
2022-09-10T03:56:51.977Z,14.90
2022-09-10T03:59:19.374Z,14.90
2022-09-10T04:01:47.417Z,15.00
2022-09-10T04:04:15.013Z,15.00
2022-09-10T04:06:42.744Z,15.00
2022-09-10T04:09:10.431Z,15.00
2022-09-10T04:11:37.652Z,15.00
2022-09-10T04:14:04.661Z,15.00
2022-09-10T04:16:32.578Z,15.00
2022-09-10T04:19:00.759Z,15.10
2022-09-10T04:21:29.487Z,15.10
2022-09-10T04:23:57.067Z,15.10
2022-09-10T04:26:25.430Z,15.10
2022-09-10T04:28:53.545Z,15.10
2022-09-10T04:31:22.543Z,15.10
2022-09-10T04:33:53.765Z,15.10
2022-09-10T04:36:24.000Z,15.10
2022-09-10T04:38:51.024Z,15.10
2022-09-10T04:41:19.626Z,15.10
2022-09-10T04:43:47.685Z,15.10
2022-09-10T04:46:15.424Z,15.20
2022-09-10T04:48:43.384Z,15.10
2022-09-10T04:51:16.633Z,15.10
2022-09-10T04:53:47.097Z,15.20
2022-09-10T04:56:14.728Z,15.20
2022-09-10T04:58:44.364Z,15.10
2022-09-10T05:01:13.175Z,15.20
2022-09-10T05:03:42.645Z,15.10
2022-09-10T05:06:09.892Z,15.10
2022-09-10T05:08:37.010Z,15.10
2022-09-10T05:11:05.251Z,15.10
2022-09-10T05:13:33.148Z,15.10
2022-09-10T05:16:01.685Z,15.10
2022-09-10T05:18:30.658Z,15.20
2022-09-10T05:20:57.832Z,15.20
2022-09-10T05:23:24.932Z,15.30
2022-09-10T05:25:54.115Z,15.30
2022-09-10T05:28:21.949Z,15.30
2022-09-10T05:30:51.699Z,15.40
2022-09-10T05:33:22.147Z,15.50
2022-09-10T05:35:51.881Z,15.70
2022-09-10T05:38:20.306Z,15.90
2022-09-10T05:40:48.635Z,16.00
2022-09-10T05:43:15.707Z,16.00
2022-09-10T05:45:44.845Z,16.10
2022-09-10T05:48:11.913Z,16.10
2022-09-10T05:50:40.744Z,16.20
2022-09-10T05:53:08.852Z,16.20
2022-09-10T05:55:35.973Z,16.30
2022-09-10T05:58:03.187Z,16.40
2022-09-10T06:00:30.993Z,16.30
2022-09-10T06:03:00.587Z,16.40
2022-09-10T06:05:32.492Z,16.40
2022-09-10T06:08:06.558Z,16.60
2022-09-10T06:10:37.671Z,16.70
2022-09-10T06:13:04.744Z,16.70
2022-09-10T06:15:33.401Z,16.90
2022-09-10T06:18:02.004Z,17.00
2022-09-10T06:20:30.126Z,17.10
2022-09-10T06:22:57.245Z,17.20
2022-09-10T06:25:24.832Z,17.70
2022-09-10T06:27:52.130Z,18.10
2022-09-10T06:30:20.801Z,18.20
2022-09-10T06:32:48.527Z,18.30
2022-09-10T06:35:16.436Z,18.40
2022-09-10T06:37:44.216Z,19.10
2022-09-10T06:40:13.611Z,20.30
2022-09-10T06:42:41.107Z,21.40
2022-09-10T06:45:08.808Z,22.10
2022-09-10T06:50:53.482Z,22.60
2022-09-10T06:53:23.886Z,22.90
2022-09-10T06:55:53.081Z,22.70
2022-09-10T06:58:22.247Z,22.30
2022-09-10T07:00:52.367Z,21.80
2022-09-10T07:03:22.180Z,21.70
2022-09-10T07:05:54.933Z,21.90
2022-09-10T07:08:26.015Z,22.70
2022-09-10T07:11:00.696Z,23.90
2022-09-10T07:13:27.990Z,25.40
2022-09-10T07:15:56.098Z,26.80
2022-09-10T07:18:24.163Z,28.20
2022-09-10T07:20:51.793Z,29.00
2022-09-10T07:23:21.924Z,30.20
2022-09-10T07:25:51.925Z,31.20
2022-09-10T07:28:38.107Z,31.70
2022-09-10T07:31:16.169Z,31.90
2022-09-10T07:33:45.609Z,32.50
2022-09-10T07:36:13.055Z,32.50
2022-09-10T07:38:41.373Z,32.80
2022-09-10T07:41:11.450Z,32.70
2022-09-10T07:43:39.875Z,33.10
2022-09-10T07:46:12.590Z,33.10
2022-09-10T07:48:41.580Z,33.10
2022-09-10T07:51:11.831Z,33.80
2022-09-10T07:53:47.543Z,33.80
2022-09-10T07:56:18.520Z,33.90
2022-09-10T07:58:45.616Z,33.70
2022-09-10T08:01:13.423Z,34.20
2022-09-10T08:03:40.940Z,33.90
2022-09-10T08:06:10.164Z,33.90
2022-09-10T08:08:40.479Z,34.40
2022-09-10T08:11:14.529Z,34.40
2022-09-10T08:13:45.675Z,34.20
2022-09-10T08:16:17.123Z,34.00
2022-09-10T08:18:45.651Z,34.10
2022-09-10T08:21:13.760Z,34.10
2022-09-10T08:23:41.527Z,34.10
2022-09-10T08:26:08.991Z,34.00
2022-09-10T08:28:38.136Z,34.10
2022-09-10T08:31:10.000Z,34.00
2022-09-10T08:33:48.625Z,33.80
2022-09-10T08:36:17.187Z,33.10
2022-09-10T08:38:46.178Z,32.20
2022-09-10T08:41:37.107Z,31.20
2022-09-10T08:44:09.940Z,29.90
2022-09-10T08:46:53.542Z,29.10
2022-09-10T08:49:50.508Z,28.20
2022-09-10T08:52:53.560Z,27.50
2022-09-10T08:55:31.602Z,27.00
2022-09-10T08:58:03.580Z,26.70
2022-09-10T09:00:34.807Z,26.50
2022-09-10T09:03:14.063Z,26.50
2022-09-10T09:05:48.862Z,26.40
2022-09-10T09:08:19.977Z,26.30
2022-09-10T09:10:51.335Z,26.20
2022-09-10T09:13:53.929Z,26.50
2022-09-10T09:16:27.885Z,26.40
2022-09-10T09:19:00.956Z,26.50
2022-09-10T09:21:50.325Z,26.60
2022-09-10T09:24:42.058Z,26.50
2022-09-10T09:27:16.455Z,26.50
2022-09-10T09:29:53.344Z,26.60
2022-09-10T09:32:22.782Z,26.60
2022-09-10T09:34:57.181Z,26.50
2022-09-10T09:37:30.242Z,26.60
2022-09-10T09:40:26.623Z,26.70
2022-09-10T09:43:03.558Z,26.70
2022-09-10T09:45:43.333Z,26.90
2022-09-10T09:48:14.258Z,26.90
2022-09-10T09:50:46.560Z,26.90
2022-09-10T09:53:26.012Z,26.90
2022-09-10T09:55:58.220Z,26.90
2022-09-10T09:58:26.357Z,27.40
2022-09-10T10:01:13.283Z,27.70
2022-09-10T10:03:52.466Z,27.90
2022-09-10T10:06:24.720Z,28.00
2022-09-10T10:08:57.270Z,27.90
2022-09-10T10:11:58.726Z,27.70
2022-09-10T10:14:35.459Z,27.30
2022-09-10T10:17:03.211Z,27.40
2022-09-10T10:19:34.320Z,27.60
2022-09-10T10:22:24.219Z,27.70
2022-09-10T10:24:54.093Z,27.70
2022-09-10T10:27:26.961Z,27.70
2022-09-10T10:30:01.666Z,27.80
2022-09-10T10:32:39.371Z,27.80
2022-09-10T10:35:27.367Z,27.60
2022-09-10T10:38:18.528Z,27.60
2022-09-10T10:40:51.609Z,27.50
2022-09-10T10:43:34.581Z,27.40
2022-09-10T10:46:11.822Z,27.30
2022-09-10T10:49:03.518Z,27.40
2022-09-10T10:51:32.271Z,27.30
2022-09-10T10:54:25.905Z,27.40
2022-09-10T10:57:02.613Z,27.50
2022-09-10T10:59:55.128Z,27.40
2022-09-10T11:02:30.304Z,27.50
2022-09-10T11:05:01.221Z,27.50
2022-09-10T11:07:29.619Z,27.50
2022-09-10T11:10:11.541Z,27.40
2022-09-10T11:12:46.805Z,27.50
2022-09-10T11:15:19.544Z,27.70
2022-09-10T11:17:54.661Z,27.70
2022-09-10T11:20:31.100Z,27.50
2022-09-10T11:23:01.497Z,27.50
2022-09-10T11:25:34.543Z,27.60
2022-09-10T11:28:12.953Z,27.70
2022-09-10T11:30:49.154Z,27.80
2022-09-10T11:33:48.424Z,27.80
2022-09-10T11:36:25.205Z,27.90
2022-09-10T11:39:13.041Z,27.90
2022-09-10T11:41:42.899Z,28.10
2022-09-10T11:44:36.595Z,28.30
2022-09-10T11:47:12.947Z,28.20
2022-09-10T11:50:03.917Z,27.70
2022-09-10T11:52:33.731Z,27.60
2022-09-10T11:55:03.802Z,27.40
2022-09-10T11:57:59.422Z,27.40
2022-09-10T12:00:29.871Z,27.20
2022-09-10T12:03:17.220Z,27.40
2022-09-10T12:05:55.341Z,27.70
2022-09-10T12:08:42.329Z,27.40
2022-09-10T12:11:37.896Z,27.10
2022-09-10T12:14:07.951Z,27.00
2022-09-10T12:16:37.102Z,26.90
2022-09-10T12:19:09.047Z,26.80
2022-09-10T12:21:41.457Z,26.80
2022-09-10T12:24:32.146Z,26.80
2022-09-10T12:27:01.349Z,26.80
2022-09-10T12:29:28.328Z,26.80
2022-09-10T12:32:25.697Z,27.10
2022-09-10T12:35:32.864Z,27.50
2022-09-10T12:38:40.199Z,27.70
2022-09-10T12:41:11.502Z,27.80
2022-09-10T12:43:40.245Z,27.60
2022-09-10T12:46:07.693Z,27.60
2022-09-10T12:48:38.021Z,27.70
2022-09-10T12:51:23.840Z,27.80
2022-09-10T12:54:16.375Z,27.60
2022-09-10T12:57:04.024Z,27.30
2022-09-10T13:00:12.451Z,27.00
2022-09-10T13:03:06.875Z,26.40
2022-09-10T13:05:48.430Z,26.00
2022-09-10T13:08:15.394Z,25.80
2022-09-10T13:10:46.056Z,25.70
2022-09-10T13:13:34.236Z,25.40
2022-09-10T13:16:03.662Z,25.40
2022-09-10T13:18:36.171Z,25.40
2022-09-10T13:21:23.525Z,25.30
2022-09-10T13:23:53.756Z,25.30
2022-09-10T13:26:49.858Z,25.50
2022-09-10T13:29:47.415Z,25.60
2022-09-10T13:32:29.207Z,26.00
2022-09-10T13:35:05.982Z,26.30
2022-09-10T13:37:58.777Z,26.60
2022-09-10T13:40:44.966Z,26.80
2022-09-10T13:43:40.899Z,27.00
2022-09-10T13:46:20.919Z,27.30
2022-09-10T13:49:00.612Z,27.40
2022-09-10T13:51:36.397Z,27.10
2022-09-10T13:54:27.714Z,27.20
2022-09-10T13:56:56.564Z,27.10
2022-09-10T13:59:30.913Z,26.70
2022-09-10T14:01:59.551Z,26.60
2022-09-10T14:04:32.893Z,26.70
2022-09-10T14:07:08.031Z,26.60
2022-09-10T14:09:35.421Z,26.70
2022-09-10T14:12:06.464Z,26.90
2022-09-10T14:14:39.231Z,26.80
2022-09-10T14:17:11.167Z,26.40
2022-09-10T14:19:47.817Z,26.20
2022-09-10T14:22:22.123Z,26.00
2022-09-10T14:24:53.126Z,26.10
2022-09-10T14:27:37.658Z,26.10
2022-09-10T14:30:26.307Z,26.20
2022-09-10T14:32:53.574Z,26.30
2022-09-10T14:35:43.053Z,26.30
2022-09-10T14:38:31.500Z,26.50
2022-09-10T14:41:08.120Z,26.60
2022-09-10T14:43:39.245Z,26.60
2022-09-10T14:46:09.163Z,26.60
2022-09-10T14:48:37.108Z,26.60
2022-09-10T14:51:22.965Z,26.60
2022-09-10T14:53:53.766Z,26.40
2022-09-10T14:56:24.838Z,26.30
2022-09-10T14:59:06.355Z,25.90
2022-09-10T15:01:35.562Z,25.60
2022-09-10T15:04:03.594Z,25.20
2022-09-10T15:06:31.851Z,24.60
2022-09-10T15:09:00.714Z,24.10
2022-09-10T15:11:28.861Z,23.50
2022-09-10T15:13:56.329Z,23.00
2022-09-10T15:16:23.505Z,22.50
2022-09-10T15:18:50.850Z,22.20
2022-09-10T15:21:17.849Z,21.90
2022-09-10T15:23:45.085Z,21.60
2022-09-10T15:26:14.687Z,21.10
2022-09-10T15:28:42.470Z,20.70
2022-09-10T15:31:10.979Z,20.20
2022-09-10T15:33:39.007Z,19.80
2022-09-10T15:36:07.020Z,19.40
2022-09-10T15:38:34.660Z,18.90
2022-09-10T15:41:20.773Z,18.40
2022-09-10T15:43:49.043Z,18.00
2022-09-10T15:46:17.630Z,17.70
2022-09-10T15:48:47.731Z,17.50
2022-09-10T15:51:17.797Z,17.40
2022-09-10T15:53:46.117Z,17.20
2022-09-10T15:56:14.781Z,17.10
2022-09-10T15:58:43.448Z,17.10
2022-09-10T16:01:12.884Z,16.90
2022-09-10T16:03:50.399Z,16.90
2022-09-10T16:06:20.973Z,16.80
2022-09-10T16:08:52.391Z,16.70
2022-09-10T16:11:20.569Z,16.70
2022-09-10T16:13:47.747Z,16.70
2022-09-10T16:16:23.955Z,16.70
2022-09-10T16:18:53.853Z,16.70
2022-09-10T16:21:24.579Z,16.70
2022-09-10T16:23:53.431Z,16.70
2022-09-10T16:26:25.521Z,16.80
2022-09-10T16:28:57.195Z,16.90
2022-09-10T16:31:27.723Z,16.80
2022-09-10T16:33:56.777Z,16.80
2022-09-10T16:36:24.350Z,16.80
2022-09-10T16:38:55.631Z,16.70
2022-09-10T16:41:24.540Z,16.60
2022-09-10T16:43:52.550Z,16.60
2022-09-10T16:46:19.708Z,16.50
2022-09-10T16:48:47.335Z,16.40
2022-09-10T16:51:17.518Z,16.40
2022-09-10T16:53:52.264Z,16.40
2022-09-10T16:56:19.291Z,16.30
2022-09-10T16:58:47.734Z,16.20
2022-09-10T17:01:16.077Z,16.10
2022-09-10T17:03:46.052Z,16.10
2022-09-10T17:06:17.201Z,16.10
2022-09-10T17:08:45.269Z,16.00
2022-09-10T17:11:14.370Z,16.00
2022-09-10T17:13:42.061Z,16.00
2022-09-10T17:16:23.211Z,16.00
2022-09-10T17:18:59.301Z,16.00
2022-09-10T17:21:28.628Z,15.90
2022-09-10T17:23:56.300Z,15.80
2022-09-10T17:26:25.273Z,15.80
2022-09-10T17:28:57.369Z,15.70
2022-09-10T17:31:25.364Z,15.70
2022-09-10T17:33:52.483Z,15.70
2022-09-10T17:36:20.028Z,15.70
2022-09-10T17:38:47.507Z,15.70
2022-09-10T17:41:15.081Z,15.60
2022-09-10T17:43:43.757Z,15.60
2022-09-10T17:46:14.950Z,15.60
2022-09-10T17:48:46.187Z,15.50
2022-09-10T17:51:15.844Z,15.50
2022-09-10T17:53:43.925Z,15.50
2022-09-10T17:56:13.486Z,15.50
2022-09-10T17:58:41.614Z,15.50
2022-09-10T18:01:12.910Z,15.50
2022-09-10T18:03:40.843Z,15.50
2022-09-10T18:06:11.074Z,15.50
2022-09-10T18:08:39.385Z,15.40
2022-09-10T18:11:13.005Z,15.50
2022-09-10T18:13:40.411Z,15.40
2022-09-10T18:16:09.517Z,15.50
2022-09-10T18:18:37.935Z,15.40
2022-09-10T18:21:14.740Z,15.40
2022-09-10T18:23:43.841Z,15.50
2022-09-10T18:26:14.396Z,15.50
2022-09-10T18:28:42.751Z,15.50
2022-09-10T18:31:11.103Z,15.50
2022-09-10T18:33:40.912Z,15.50
2022-09-10T18:36:14.516Z,15.40
2022-09-10T18:38:44.547Z,15.40
2022-09-10T18:41:21.070Z,15.40
2022-09-10T18:43:48.950Z,15.40
2022-09-10T18:46:17.140Z,15.50
2022-09-10T18:48:44.636Z,15.40
2022-09-10T18:51:14.721Z,15.40
2022-09-10T18:53:45.470Z,15.40
2022-09-10T18:56:16.247Z,15.40
2022-09-10T18:58:49.031Z,15.40
2022-09-10T19:01:16.864Z,15.40
2022-09-10T19:03:47.012Z,15.30
2022-09-10T19:06:16.936Z,15.30
2022-09-10T19:08:50.031Z,15.20
2022-09-10T19:11:17.770Z,15.20
2022-09-10T19:13:49.655Z,15.20
2022-09-10T19:16:17.772Z,15.20
2022-09-10T19:18:54.249Z,15.10
2022-09-10T19:21:22.382Z,15.10
2022-09-10T19:23:50.639Z,15.10
2022-09-10T19:26:19.391Z,15.00
2022-09-10T19:28:47.933Z,14.90
2022-09-10T19:31:19.695Z,14.90
2022-09-10T19:33:47.895Z,14.80
2022-09-10T19:36:17.906Z,14.80
2022-09-10T19:38:46.172Z,14.80
2022-09-10T19:41:19.018Z,14.80
2022-09-10T19:43:47.999Z,14.80
2022-09-10T19:46:18.033Z,14.70
2022-09-10T19:48:46.797Z,14.70
2022-09-10T19:51:16.537Z,14.60
2022-09-10T19:53:43.849Z,14.50
2022-09-10T19:56:20.675Z,14.50
2022-09-10T19:58:50.690Z,14.50
2022-09-10T20:01:20.954Z,14.40
2022-09-10T20:03:49.999Z,14.40
2022-09-10T20:06:18.963Z,14.30
2022-09-10T20:08:50.634Z,14.30
2022-09-10T20:11:22.365Z,14.30
2022-09-10T20:13:54.440Z,14.30
2022-09-10T20:16:22.209Z,14.30
2022-09-10T20:18:49.458Z,14.20
2022-09-10T20:21:24.170Z,14.30
2022-09-10T20:23:53.079Z,14.20
2022-09-10T20:26:22.849Z,14.20
2022-09-10T20:28:52.898Z,14.10
2022-09-10T20:31:20.737Z,14.20
2022-09-10T20:33:48.293Z,14.10
2022-09-10T20:36:17.360Z,14.10
2022-09-10T20:38:45.000Z,14.00
2022-09-10T20:41:12.412Z,14.00
2022-09-10T20:43:40.136Z,14.00
2022-09-10T20:46:14.902Z,13.90
2022-09-10T20:48:44.854Z,13.90
2022-09-10T20:51:17.994Z,13.80
2022-09-10T20:53:45.482Z,13.80
2022-09-10T20:56:15.362Z,13.70
2022-09-10T20:58:42.583Z,13.70
2022-09-10T21:01:14.611Z,13.70
2022-09-10T21:03:42.188Z,13.60
2022-09-10T21:06:10.778Z,13.60
2022-09-10T21:08:39.704Z,13.60
2022-09-10T21:11:09.469Z,13.60
2022-09-10T21:13:37.848Z,13.50
2022-09-10T21:16:09.220Z,13.50
2022-09-10T21:18:37.596Z,13.50
2022-09-10T21:21:08.192Z,13.50
2022-09-10T21:23:36.786Z,13.50
2022-09-10T21:26:04.229Z,13.50
2022-09-10T21:28:31.568Z,13.40
2022-09-10T21:31:03.191Z,13.40
2022-09-10T21:33:30.413Z,13.30
2022-09-10T21:36:06.672Z,13.30
2022-09-10T21:38:35.741Z,13.30
2022-09-10T21:41:04.819Z,13.30
2022-09-10T21:43:33.915Z,13.30
2022-09-10T21:46:02.440Z,13.30
2022-09-10T21:48:32.754Z,13.20
2022-09-10T21:51:02.166Z,13.20
2022-09-10T21:53:29.152Z,13.20
2022-09-10T21:55:57.792Z,13.20
2022-09-10T21:58:28.102Z,13.20
2022-09-10T22:00:58.624Z,13.20
2022-09-10T22:03:27.040Z,13.20
2022-09-10T22:06:11.886Z,13.10
2022-09-10T22:08:41.886Z,13.10
2022-09-10T22:11:14.373Z,13.00
2022-09-10T22:13:43.121Z,13.00
2022-09-10T22:16:12.771Z,13.00
2022-09-10T22:18:41.563Z,13.00
2022-09-10T22:21:09.534Z,13.00
2022-09-10T22:23:38.574Z,13.00
2022-09-10T22:26:08.224Z,13.10
2022-09-10T22:28:36.734Z,13.00
2022-09-10T22:31:17.295Z,13.10
2022-09-10T22:33:50.030Z,13.10
2022-09-10T22:36:21.300Z,13.10
2022-09-10T22:38:50.076Z,13.00
2022-09-10T22:41:17.705Z,13.00
2022-09-10T22:43:45.206Z,13.00
2022-09-10T22:46:12.557Z,13.00
2022-09-10T22:48:42.643Z,13.00
2022-09-10T22:51:13.913Z,12.90
2022-09-10T22:53:42.798Z,12.90
2022-09-10T22:56:11.500Z,12.90
2022-09-10T22:58:38.932Z,12.90
2022-09-10T23:01:09.009Z,12.90
2022-09-10T23:03:37.881Z,12.90
2022-09-10T23:06:05.774Z,12.80
2022-09-10T23:08:35.095Z,12.70
2022-09-10T23:11:10.935Z,12.60
2022-09-10T23:13:38.681Z,12.60
2022-09-10T23:16:22.912Z,12.50
2022-09-10T23:18:53.319Z,12.50
2022-09-10T23:21:23.900Z,12.60
2022-09-10T23:23:54.004Z,12.60
2022-09-10T23:26:22.737Z,12.60
2022-09-10T23:28:50.165Z,12.50
2022-09-10T23:31:21.010Z,12.50
2022-09-10T23:33:55.262Z,12.40
2022-09-10T23:36:23.345Z,12.40
2022-09-10T23:38:50.473Z,12.40
2022-09-10T23:41:18.046Z,12.40
2022-09-10T23:43:45.590Z,12.30
2022-09-10T23:46:13.350Z,12.40
2022-09-10T23:48:42.699Z,12.40
2022-09-10T23:51:13.732Z,12.40
2022-09-10T23:53:42.463Z,12.30
2022-09-10T23:56:09.707Z,12.30
2022-09-10T23:58:36.863Z,12.30
